Time;durP1;ratioP1;P1;durP2;ratioP2;P2;SDS_P1;SDS_P2;PMS_P1;PMS_P2;Temp;Humidity;BMP_temperature;BMP_pressure;BME280_temperature;BME280_humidity;BME280_pressure;Samples;Min_cycle;Max_cycle;Signal;HPM_P1;HPM_P2
2021/05/30 00:01:19;;;;;;;4.62;2.65;;;;;;;16.43;74.17;101085.56;1676249;85;21512;-79
2021/05/30 00:03:46;;;;;;;6.20;2.25;;;;;;;16.37;74.85;101088.66;1674138;85;21116;-77
2021/05/30 00:06:14;;;;;;;6.87;2.47;;;;;;;16.32;75.17;101079.89;1674198;85;20984;-77
2021/05/30 00:08:41;;;;;;;4.85;2.72;;;;;;;16.32;75.41;101088.23;1674415;85;21132;-77
2021/05/30 00:11:11;;;;;;;6.53;2.35;;;;;;;16.33;75.37;101088.11;1674504;85;21004;-77
2021/05/30 00:13:39;;;;;;;3.10;2.62;;;;;;;16.33;75.37;101092.52;1674742;85;21156;-73
2021/05/30 00:16:06;;;;;;;5.15;2.77;;;;;;;16.32;75.52;101095.61;1674275;85;22359;-76
2021/05/30 00:18:34;;;;;;;6.45;2.58;;;;;;;16.33;75.46;101097.75;1674428;85;21020;-75
2021/05/30 00:21:01;;;;;;;3.08;2.55;;;;;;;16.35;75.53;101101.06;1674396;85;21118;-76
2021/05/30 00:23:29;;;;;;;3.70;2.22;;;;;;;16.38;76.42;101105.58;1674327;84;21064;-76
2021/05/30 00:25:56;;;;;;;8.35;3.10;;;;;;;16.41;77.19;101100.08;1674760;85;21456;-71
2021/05/30 00:28:23;;;;;;;3.15;2.70;;;;;;;16.42;79.01;101099.61;1674268;85;21609;-77
2021/05/30 00:30:51;;;;;;;4.53;2.85;;;;;;;16.46;80.07;101099.71;1674013;85;21645;-77
2021/05/30 00:33:19;;;;;;;5.28;2.80;;;;;;;16.47;80.59;101096.58;1674095;85;21036;-76
2021/05/30 00:35:46;;;;;;;3.30;3.00;;;;;;;16.49;81.00;101089.45;1674330;85;21115;-73
2021/05/30 00:38:13;;;;;;;4.62;3.33;;;;;;;16.51;80.84;101083.59;1674286;85;21600;-81
2021/05/30 00:40:41;;;;;;;3.15;2.85;;;;;;;16.55;80.72;101081.10;1674145;85;21035;-75
2021/05/30 00:43:08;;;;;;;4.10;3.10;;;;;;;16.53;80.26;101079.88;1674426;85;21744;-78
2021/05/30 00:45:35;;;;;;;4.03;3.60;;;;;;;16.48;80.69;101077.30;1674620;85;21622;-83
2021/05/30 00:48:03;;;;;;;6.62;4.17;;;;;;;16.39;80.95;101072.36;1674544;85;21147;-80
2021/05/30 00:50:32;;;;;;;5.45;4.12;;;;;;;16.32;81.38;101069.89;1674632;85;21097;-75
2021/05/30 00:52:59;;;;;;;6.28;4.40;;;;;;;16.26;81.38;101069.09;1674228;85;21545;-76
2021/05/30 00:55:27;;;;;;;7.20;4.05;;;;;;;16.26;81.46;101071.24;1674374;85;21183;-77
2021/05/30 00:57:54;;;;;;;6.58;3.62;;;;;;;16.31;81.21;101066.91;1674126;85;21123;-75
2021/05/30 01:00:22;;;;;;;4.15;2.90;;;;;;;16.34;80.96;101074.03;1674611;85;21618;-78
2021/05/30 01:02:49;;;;;;;3.40;2.85;;;;;;;16.35;81.18;101078.33;1674376;85;21098;-75
2021/05/30 01:05:16;;;;;;;3.87;2.90;;;;;;;16.31;82.00;101077.39;1674292;85;21028;-77
2021/05/30 01:07:46;;;;;;;5.80;2.90;;;;;;;16.17;82.49;101077.72;1674646;85;21325;-73
2021/05/30 01:10:26;;;;;;;3.30;2.80;;;;;;;16.00;83.87;101070.41;1674496;85;21132;-74
2021/05/30 01:12:56;;;;;;;3.47;2.75;;;;;;;15.88;84.47;101071.78;1674659;85;21888;-75
2021/05/30 01:15:22;;;;;;;4.50;3.10;;;;;;;15.82;85.07;101073.59;1674707;85;21625;-75
2021/05/30 01:17:51;;;;;;;3.02;2.67;;;;;;;15.80;85.23;101072.88;1674468;85;21080;-79
2021/05/30 01:20:22;;;;;;;3.25;2.95;;;;;;;15.81;85.21;101071.09;1674182;85;21004;-76
2021/05/30 01:22:49;;;;;;;4.25;3.08;;;;;;;15.82;85.17;101072.28;1674529;85;21016;-76
2021/05/30 01:25:19;;;;;;;3.25;2.95;;;;;;;15.87;85.19;101073.20;1663612;84;21048;-72
2021/05/30 01:27:48;;;;;;;6.30;3.58;;;;;;;15.93;85.19;101075.79;1657119;84;21170;-72
2021/05/30 01:30:18;;;;;;;5.97;3.25;;;;;;;15.98;85.23;101077.57;1657528;86;21583;-72
2021/05/30 01:32:45;;;;;;;6.15;2.85;;;;;;;16.01;85.04;101072.92;1657818;86;21023;-71
2021/05/30 01:35:12;;;;;;;3.50;3.05;;;;;;;16.04;84.92;101070.52;1658256;86;21144;-71
2021/05/30 01:37:40;;;;;;;3.02;2.80;;;;;;;16.05;84.59;101063.83;1659930;86;21195;-72
2021/05/30 01:40:09;;;;;;;4.28;3.08;;;;;;;16.09;84.35;101063.94;1659782;86;21104;-74
2021/05/30 01:42:36;;;;;;;4.33;3.50;;;;;;;16.12;84.09;101061.06;1660639;86;21033;-75
2021/05/30 01:45:04;;;;;;;4.30;3.10;;;;;;;16.15;83.97;101059.98;1658563;86;21084;-74
2021/05/30 01:47:54;;;;;;;3.85;3.12;;;;;;;16.18;83.80;101057.94;1657380;86;21040;-70
2021/05/30 01:50:24;;;;;;;4.22;3.85;;;;;;;16.20;83.78;101056.05;1696556;84;21016;-77
2021/05/30 01:52:52;;;;;;;6.25;4.22;;;;;;;16.24;83.42;101059.24;1696511;84;21102;-77
2021/05/30 01:55:42;;;;;;;6.97;4.85;;;;;;;16.24;83.30;101060.05;1696208;84;21059;-78
2021/05/30 01:57:58;;;;;;;6.83;4.03;;;;;;;16.23;83.19;101064.95;1692274;84;21058;-72
2021/05/30 02:00:25;;;;;;;4.00;3.60;;;;;;;16.23;83.10;101066.27;1696131;84;21079;-72
2021/05/30 02:02:56;;;;;;;4.22;3.55;;;;;;;16.20;83.26;101063.06;1696513;84;21008;-74
2021/05/30 02:05:24;;;;;;;4.33;3.52;;;;;;;16.17;83.15;101061.53;1696561;84;21112;-77
2021/05/30 02:07:51;;;;;;;5.97;3.70;;;;;;;16.13;83.25;101061.91;1696452;84;21039;-79
2021/05/30 02:10:21;;;;;;;4.42;3.77;;;;;;;16.08;83.27;101062.27;1696533;84;21585;-79
2021/05/30 02:12:52;;;;;;;7.17;3.62;;;;;;;16.05;83.43;101052.56;1696507;84;21356;-82
2021/05/30 02:15:19;;;;;;;5.97;4.47;;;;;;;16.00;83.64;101056.85;1696781;84;21441;-80
2021/05/30 02:17:46;;;;;;;9.45;4.17;;;;;;;15.96;83.85;101057.22;1696592;84;21125;-78
2021/05/30 02:20:13;;;;;;;6.80;3.77;;;;;;;15.90;84.27;101065.09;1696798;84;20988;-81
2021/05/30 02:22:41;;;;;;;5.62;3.52;;;;;;;15.83;84.52;101066.08;1696434;84;21609;-73
2021/05/30 02:25:10;;;;;;;5.22;3.58;;;;;;;15.80;84.79;101072.88;1696529;84;21111;-73
2021/05/30 02:27:37;;;;;;;3.92;3.60;;;;;;;15.76;84.95;101071.45;1696441;84;21079;-74
2021/05/30 02:30:06;;;;;;;7.45;3.85;;;;;;;15.69;85.22;101074.70;1696639;84;21151;-74
2021/05/30 02:32:33;;;;;;;4.28;3.83;;;;;;;15.65;85.47;101068.05;1696350;84;21605;-72
2021/05/30 02:35:00;;;;;;;7.45;4.65;;;;;;;15.66;85.66;101076.27;1696683;84;21549;-75
2021/05/30 02:37:27;;;;;;;4.17;3.75;;;;;;;15.65;85.82;101070.20;1696655;84;21083;-83
2021/05/30 02:39:54;;;;;;;6.50;3.95;;;;;;;15.65;86.02;101068.05;1696787;84;21699;-81
2021/05/30 02:42:21;;;;;;;4.17;3.77;;;;;;;15.63;86.26;101066.88;1696755;84;21659;-83
2021/05/30 02:44:48;;;;;;;5.75;3.95;;;;;;;15.60;86.66;101071.02;1696527;84;21051;-77
2021/05/30 02:47:16;;;;;;;4.22;3.70;;;;;;;15.57;86.92;101066.04;1697020;84;20976;-82
2021/05/30 02:49:44;;;;;;;14.15;4.15;;;;;;;15.55;87.20;101064.51;1702118;84;21074;-82
2021/05/30 02:52:11;;;;;;;5.12;3.58;;;;;;;15.53;87.42;101071.66;1704948;84;21101;-78
2021/05/30 02:54:38;;;;;;;5.05;3.58;;;;;;;15.51;87.62;101069.15;1705361;82;22170;-78
2021/05/30 02:57:06;;;;;;;4.28;3.80;;;;;;;15.51;87.79;101071.77;1705087;84;21644;-82
2021/05/30 02:59:33;;;;;;;4.75;3.70;;;;;;;15.49;87.84;101072.38;1704602;84;21062;-78
2021/05/30 03:02:00;;;;;;;3.98;3.50;;;;;;;15.49;88.02;101074.16;1705352;82;21938;-79
2021/05/30 03:04:27;;;;;;;3.50;3.20;;;;;;;15.48;88.26;101070.70;1705683;84;21588;-73
2021/05/30 03:06:54;;;;;;;3.85;3.45;;;;;;;15.49;88.42;101069.76;1705395;82;21686;-75
2021/05/30 03:09:22;;;;;;;3.77;3.27;;;;;;;15.52;88.57;101075.22;1705280;84;20999;-81
2021/05/30 03:11:50;;;;;;;4.60;3.62;;;;;;;15.57;88.75;101075.20;1705264;82;21384;-77
2021/05/30 03:14:17;;;;;;;4.85;3.83;;;;;;;15.61;88.72;101071.38;1705427;82;21030;-79
2021/05/30 03:16:45;;;;;;;6.95;4.33;;;;;;;15.63;88.83;101077.34;1704946;84;20991;-80
2021/05/30 03:19:12;;;;;;;5.15;3.87;;;;;;;15.66;88.97;101074.48;1705226;82;21950;-76
2021/05/30 03:21:41;;;;;;;5.47;3.77;;;;;;;15.68;88.90;101075.17;1707400;82;21082;-74
2021/05/30 03:24:09;;;;;;;5.45;3.52;;;;;;;15.72;88.84;101070.06;1708568;82;21059;-80
2021/05/30 03:26:36;;;;;;;6.17;3.75;;;;;;;15.75;88.72;101073.73;1709499;82;21000;-79
2021/05/30 03:29:04;;;;;;;4.10;3.67;;;;;;;15.80;88.66;101075.48;1709653;82;21010;-75
2021/05/30 03:31:31;;;;;;;4.20;3.80;;;;;;;15.84;88.57;101072.98;1706718;82;21075;-75
2021/05/30 03:33:58;;;;;;;4.10;3.70;;;;;;;15.90;88.47;101067.72;1705285;84;21027;-81
2021/05/30 03:36:27;;;;;;;4.45;3.77;;;;;;;15.95;88.23;101073.42;1705589;82;21994;-83
2021/05/30 03:39:03;;;;;;;7.00;3.85;;;;;;;15.98;87.80;101073.64;1705613;82;21043;-78
2021/05/30 03:41:40;;;;;;;6.12;3.80;;;;;;;15.99;87.65;101072.66;1705357;84;21060;-81
2021/05/30 03:44:07;;;;;;;5.83;4.70;;;;;;;15.99;87.56;101072.66;1705546;84;21128;-79
2021/05/30 03:46:35;;;;;;;5.17;3.95;;;;;;;16.01;87.57;101078.63;1705040;84;22269;-79
2021/05/30 03:49:04;;;;;;;4.50;3.50;;;;;;;16.04;87.59;101069.21;1703906;83;21071;-74
2021/05/30 03:51:31;;;;;;;4.95;3.62;;;;;;;16.07;87.32;101068.95;1696878;84;21715;-75
2021/05/30 03:53:58;;;;;;;5.15;3.87;;;;;;;16.13;87.09;101066.67;1697015;84;21051;-79
2021/05/30 03:56:25;;;;;;;4.17;3.37;;;;;;;16.21;86.69;101073.39;1696929;84;21106;-76
2021/05/30 03:58:52;;;;;;;4.20;3.80;;;;;;;16.30;86.13;101060.87;1696648;84;21143;-76
2021/05/30 04:01:19;;;;;;;6.20;3.72;;;;;;;16.42;85.36;101073.41;1696760;84;21267;-75
2021/05/30 04:03:46;;;;;;;6.62;3.45;;;;;;;16.52;84.32;101071.69;1696282;84;21134;-75
2021/05/30 04:06:13;;;;;;;6.50;4.20;;;;;;;16.61;83.53;101074.86;1696529;84;21139;-77
2021/05/30 04:08:42;;;;;;;3.87;3.47;;;;;;;16.69;83.49;101071.58;1696594;84;21836;-76
2021/05/30 04:11:09;;;;;;;5.30;3.33;;;;;;;16.77;83.46;101075.23;1696688;84;21111;-78
2021/05/30 04:13:36;;;;;;;5.65;4.25;;;;;;;16.83;83.30;101075.17;1696725;84;20968;-79
2021/05/30 04:16:03;;;;;;;3.75;3.40;;;;;;;16.90;83.11;101076.31;1696663;84;21106;-74
2021/05/30 04:18:30;;;;;;;5.22;3.85;;;;;;;16.96;82.37;101072.33;1696700;84;21134;-78
2021/05/30 04:20:57;;;;;;;7.28;3.90;;;;;;;16.98;81.97;101074.33;1696842;84;21121;-82
2021/05/30 04:23:26;;;;;;;8.25;3.42;;;;;;;16.99;81.68;101074.69;1696652;84;21679;-81
2021/05/30 04:25:53;;;;;;;4.10;3.62;;;;;;;17.01;81.49;101075.41;1696958;84;21042;-77
2021/05/30 04:28:21;;;;;;;4.78;3.80;;;;;;;17.05;81.47;101082.85;1696472;84;21063;-78
2021/05/30 04:30:48;;;;;;;5.28;3.95;;;;;;;17.09;81.51;101084.26;1696748;84;21637;-75
2021/05/30 04:33:17;;;;;;;4.12;3.83;;;;;;;17.16;81.29;101083.25;1696676;84;21150;-81
2021/05/30 04:35:44;;;;;;;4.75;3.70;;;;;;;17.24;81.11;101081.61;1696629;84;21028;-76
2021/05/30 04:38:12;;;;;;;4.17;3.52;;;;;;;17.29;80.25;101087.27;1697035;84;21076;-73
2021/05/30 04:40:39;;;;;;;4.85;3.80;;;;;;;17.37;79.86;101091.86;1696465;84;21114;-78
2021/05/30 04:43:06;;;;;;;6.05;3.80;;;;;;;17.45;79.61;101090.21;1697026;84;21663;-82
2021/05/30 04:45:33;;;;;;;6.20;3.67;;;;;;;17.52;79.07;101094.95;1696617;84;21808;-72
2021/05/30 04:48:01;;;;;;;4.33;3.55;;;;;;;17.56;78.90;101088.00;1696297;84;21043;-76
2021/05/30 04:50:29;;;;;;;4.65;3.65;;;;;;;17.66;78.92;101084.08;1702522;84;20913;-77
2021/05/30 04:52:56;;;;;;;4.08;3.60;;;;;;;17.73;78.62;101086.03;1705147;84;21007;-76
2021/05/30 04:55:23;;;;;;;8.95;4.20;;;;;;;17.81;78.46;101094.52;1705412;84;21062;-74
2021/05/30 04:57:50;;;;;;;4.47;3.45;;;;;;;17.87;78.12;101088.23;1705275;82;21627;-75
2021/05/30 05:00:18;;;;;;;4.22;3.83;;;;;;;17.87;77.27;101089.55;1704747;84;21099;-80
2021/05/30 05:02:45;;;;;;;6.42;4.10;;;;;;;17.82;76.54;101086.52;1705139;84;21645;-73
2021/05/30 05:05:12;;;;;;;5.65;4.15;;;;;;;17.81;76.39;101093.20;1705098;82;21047;-76
2021/05/30 05:07:40;;;;;;;4.78;4.08;;;;;;;17.80;76.05;101088.94;1706029;82;21581;-76
2021/05/30 05:10:10;;;;;;;4.72;3.70;;;;;;;17.82;76.27;101091.77;1708101;82;21090;-86
2021/05/30 05:12:37;;;;;;;6.72;3.83;;;;;;;17.89;76.83;101098.61;1709774;81;21035;-73
2021/05/30 05:15:06;;;;;;;8.00;4.17;;;;;;;17.95;76.60;101097.58;1709724;82;21015;-74
2021/05/30 05:17:33;;;;;;;4.53;3.50;;;;;;;18.04;76.44;101093.28;1707542;82;20963;-80
2021/05/30 05:20:00;;;;;;;3.52;3.22;;;;;;;18.13;75.36;101099.02;1705174;82;21158;-73
2021/05/30 05:22:27;;;;;;;4.58;3.27;;;;;;;18.19;74.67;101098.45;1705314;82;21096;-73
2021/05/30 05:24:54;;;;;;;5.30;3.30;;;;;;;18.29;74.12;101103.70;1704926;84;21143;-77
2021/05/30 05:27:21;;;;;;;5.80;4.00;;;;;;;18.32;72.99;101102.94;1705323;84;21039;-85
2021/05/30 05:29:48;;;;;;;4.72;3.72;;;;;;;18.33;72.55;101097.20;1704840;82;21011;-73
2021/05/30 05:32:15;;;;;;;4.12;3.75;;;;;;;18.28;72.53;101100.23;1705200;82;20978;-81
2021/05/30 05:34:42;;;;;;;4.80;3.62;;;;;;;18.27;73.02;101097.29;1705393;84;21168;-81
2021/05/30 05:37:09;;;;;;;7.35;4.05;;;;;;;18.28;72.87;101093.67;1705190;82;21015;-72
2021/05/30 05:39:38;;;;;;;6.33;3.90;;;;;;;18.33;73.00;101097.20;1705198;82;20944;-73
2021/05/30 05:42:06;;;;;;;5.62;4.12;;;;;;;18.40;72.94;101092.58;1705220;84;21083;-80
2021/05/30 05:44:34;;;;;;;5.42;3.52;;;;;;;18.47;72.66;101095.47;1705252;84;21061;-79
2021/05/30 05:47:04;;;;;;;4.08;3.67;;;;;;;18.53;72.49;101091.47;1705225;84;21075;-72
2021/05/30 05:49:33;;;;;;;3.87;3.58;;;;;;;18.57;71.84;101088.91;1704118;83;21159;-75
2021/05/30 05:52:01;;;;;;;5.03;4.10;;;;;;;18.66;71.84;101090.20;1696455;84;21043;-73
2021/05/30 05:54:28;;;;;;;9.45;3.90;;;;;;;18.74;71.55;101090.78;1696386;84;21042;-75
2021/05/30 05:56:55;;;;;;;5.35;3.50;;;;;;;18.80;71.78;101092.83;1696417;84;20960;-76
2021/05/30 05:59:22;;;;;;;5.50;3.40;;;;;;;18.86;71.82;101097.03;1696622;84;21104;-74
2021/05/30 06:01:49;;;;;;;5.17;3.60;;;;;;;18.94;71.68;101093.21;1696379;84;21102;-74
2021/05/30 06:04:18;;;;;;;5.12;3.45;;;;;;;19.03;71.30;101099.40;1696629;84;21107;-72
2021/05/30 06:06:45;;;;;;;4.37;3.33;;;;;;;19.08;70.74;101094.52;1696710;84;21629;-72
2021/05/30 06:09:12;;;;;;;5.60;3.72;;;;;;;19.14;70.31;101099.23;1696914;84;21052;-72
2021/05/30 06:11:41;;;;;;;8.38;3.75;;;;;;;19.20;69.52;101107.02;1696703;84;21128;-74
2021/05/30 06:14:08;;;;;;;5.20;3.33;;;;;;;19.22;69.22;101109.83;1696619;84;21114;-73
2021/05/30 06:16:35;;;;;;;3.90;3.50;;;;;;;19.23;68.53;101115.45;1696537;84;21561;-72
2021/05/30 06:19:03;;;;;;;4.72;3.77;;;;;;;19.23;68.38;101114.61;1696561;84;21012;-72
2021/05/30 06:21:30;;;;;;;7.08;3.52;;;;;;;19.24;67.84;101114.45;1696713;84;21087;-72
2021/05/30 06:23:58;;;;;;;5.22;3.55;;;;;;;19.28;67.80;101113.67;1696881;84;21031;-75
2021/05/30 06:26:25;;;;;;;4.37;3.40;;;;;;;19.33;68.09;101115.40;1665545;84;21096;-76
2021/05/30 06:28:52;;;;;;;5.12;3.52;;;;;;;19.32;67.84;101110.62;1696567;84;21412;-77
2021/05/30 06:31:20;;;;;;;17.10;4.72;;;;;;;19.30;67.97;101112.58;1696690;84;21154;-74
2021/05/30 06:33:47;;;;;;;32.93;5.25;;;;;;;19.32;68.33;101113.73;1696307;84;21745;-71
2021/05/30 06:36:14;;;;;;;31.02;5.20;;;;;;;19.35;68.08;101105.06;1696212;84;21656;-72
2021/05/30 06:38:41;;;;;;;25.97;5.10;;;;;;;19.43;67.37;101111.75;1696383;84;21047;-72
2021/05/30 06:41:08;;;;;;;30.20;5.45;;;;;;;19.51;66.57;101114.49;1696367;84;21019;-72
2021/05/30 06:43:36;;;;;;;27.15;5.42;;;;;;;19.60;66.40;101118.03;1696563;84;21067;-71
2021/05/30 06:46:04;;;;;;;25.82;5.08;;;;;;;19.68;66.26;101118.63;1696330;84;21095;-71
2021/05/30 06:48:31;;;;;;;25.32;5.33;;;;;;;19.74;65.82;101115.39;1696658;84;21074;-73
2021/05/30 06:51:20;;;;;;;15.90;4.58;;;;;;;19.81;65.95;101119.09;1700846;84;21048;-75
2021/05/30 06:53:47;;;;;;;9.55;4.12;;;;;;;19.88;65.34;101118.80;1704071;84;20999;-74
2021/05/30 06:56:14;;;;;;;8.20;4.80;;;;;;;19.84;64.85;101118.30;1709125;83;20951;-72
2021/05/30 06:58:41;;;;;;;5.35;3.42;;;;;;;19.86;65.29;101114.19;1707151;84;21011;-71
2021/05/30 07:01:11;;;;;;;6.20;3.90;;;;;;;19.89;65.47;101106.81;1709180;82;21028;-72
2021/05/30 07:03:39;;;;;;;4.17;3.30;;;;;;;19.97;65.28;101105.56;1707223;82;20964;-72
2021/05/30 07:06:06;;;;;;;8.20;3.42;;;;;;;20.05;65.09;101106.14;1704857;84;21030;-72
2021/05/30 07:08:33;;;;;;;12.40;4.03;;;;;;;20.15;65.08;101107.38;1704976;84;20999;-77
2021/05/30 07:11:00;;;;;;;12.53;3.95;;;;;;;20.24;64.79;101109.09;1705084;82;21078;-72
2021/05/30 07:13:28;;;;;;;8.53;3.47;;;;;;;20.29;63.96;101114.30;1705327;84;21613;-72
2021/05/30 07:15:55;;;;;;;5.42;3.10;;;;;;;20.37;63.74;101106.44;1705224;82;21671;-72
2021/05/30 07:18:22;;;;;;;8.23;3.02;;;;;;;20.44;62.23;101105.33;1705672;82;21027;-72
2021/05/30 07:20:53;;;;;;;7.70;2.67;;;;;;;20.47;62.75;101108.48;1705280;82;21051;-77
2021/05/30 07:23:21;;;;;;;6.62;2.90;;;;;;;20.56;62.92;101111.52;1705222;82;21138;-76
2021/05/30 07:25:50;;;;;;;4.75;2.62;;;;;;;20.56;60.58;101113.32;1705419;84;21459;-71
2021/05/30 07:28:18;;;;;;;4.35;2.52;;;;;;;20.49;60.44;101116.23;1705257;84;20992;-73
2021/05/30 07:30:47;;;;;;;5.10;2.80;;;;;;;20.56;60.70;101117.27;1704861;84;21091;-72
2021/05/30 07:33:15;;;;;;;3.85;2.37;;;;;;;20.66;61.11;101119.33;1705338;84;21059;-73
2021/05/30 07:35:42;;;;;;;3.98;2.60;;;;;;;20.72;60.17;101116.06;1705245;82;21062;-73
2021/05/30 07:38:09;;;;;;;5.87;2.70;;;;;;;20.69;59.62;101114.23;1705440;82;21973;-85
2021/05/30 07:40:38;;;;;;;12.37;4.40;;;;;;;20.72;59.97;101121.34;1705205;82;21058;-76
2021/05/30 07:43:07;;;;;;;11.90;3.62;;;;;;;20.75;59.62;101114.44;1705213;82;20963;-71
2021/05/30 07:45:34;;;;;;;11.38;3.60;;;;;;;20.81;59.57;101120.41;1705222;84;20983;-78
2021/05/30 07:48:02;;;;;;;12.88;3.22;;;;;;;20.89;59.36;101113.04;1705011;84;21099;-76
2021/05/30 07:50:29;;;;;;;12.18;2.95;;;;;;;20.90;57.31;101118.14;1703668;84;21119;-76
2021/05/30 07:52:56;;;;;;;14.60;3.20;;;;;;;20.93;55.94;101117.02;1696724;84;20937;-72
2021/05/30 07:55:23;;;;;;;8.70;2.37;;;;;;;20.93;55.38;101120.47;1697216;84;20996;-71
2021/05/30 07:57:50;;;;;;;10.55;3.37;;;;;;;20.97;55.85;101120.49;1696396;84;21098;-77
2021/05/30 08:00:18;;;;;;;13.78;3.20;;;;;;;21.05;56.06;101126.31;1696557;84;21087;-74
2021/05/30 08:02:45;;;;;;;12.75;2.77;;;;;;;21.05;55.26;101128.95;1696692;84;21082;-73
2021/05/30 08:05:17;;;;;;;13.68;3.55;;;;;;;21.03;54.79;101129.09;1696807;84;21142;-73
2021/05/30 08:07:43;;;;;;;11.00;3.00;;;;;;;20.99;54.96;101132.23;1696808;84;20956;-71
2021/05/30 08:10:11;;;;;;;7.65;2.20;;;;;;;20.98;54.80;101131.39;1696537;84;21918;-73
2021/05/30 08:12:39;;;;;;;6.17;1.42;;;;;;;21.01;54.80;101125.80;1696677;84;20896;-71
2021/05/30 08:15:09;;;;;;;9.50;2.37;;;;;;;21.04;52.80;101133.41;1696183;84;21027;-72
2021/05/30 08:17:38;;;;;;;4.70;1.52;;;;;;;21.07;52.49;101136.21;1696687;84;21589;-72
2021/05/30 08:20:06;;;;;;;2.55;1.60;;;;;;;21.08;52.42;101143.98;1696089;84;21601;-73
2021/05/30 08:22:34;;;;;;;3.95;1.82;;;;;;;21.08;51.47;101139.20;1696701;84;21605;-72
2021/05/30 08:25:01;;;;;;;6.83;2.50;;;;;;;21.04;51.00;101141.80;1696825;84;21111;-73
2021/05/30 08:27:28;;;;;;;8.50;2.25;;;;;;;20.97;51.65;101135.49;1696543;84;21152;-72
2021/05/30 08:29:55;;;;;;;8.10;2.17;;;;;;;20.94;52.43;101146.36;1696704;84;21004;-74
2021/05/30 08:32:24;;;;;;;7.50;2.37;;;;;;;20.91;53.01;101142.23;1696757;84;21601;-73
2021/05/30 08:34:50;;;;;;;8.90;3.10;;;;;;;20.85;53.05;101148.13;1696436;84;21108;-75
2021/05/30 08:37:18;;;;;;;12.18;3.42;;;;;;;20.75;53.64;101146.08;1696389;84;21079;-73
2021/05/30 08:39:46;;;;;;;17.55;4.00;;;;;;;20.67;54.03;101142.09;1696680;84;21115;-73
2021/05/30 08:42:15;;;;;;;10.25;3.35;;;;;;;20.65;55.03;101148.47;1696463;84;20996;-73
2021/05/30 08:44:42;;;;;;;12.98;4.22;;;;;;;20.66;56.32;101153.61;1642838;84;21044;-73
2021/05/30 08:47:10;;;;;;;6.50;2.62;;;;;;;20.67;56.57;101148.69;1696368;84;21704;-75
2021/05/30 08:49:37;;;;;;;10.38;3.22;;;;;;;20.68;56.99;101147.68;1665115;84;21577;-77
2021/05/30 08:52:06;;;;;;;12.15;3.85;;;;;;;20.71;56.44;101153.96;1696416;83;21729;-79
2021/05/30 08:54:33;;;;;;;7.22;2.58;;;;;;;20.70;55.53;101153.65;1666229;84;20947;-73
2021/05/30 08:57:02;;;;;;;6.45;2.95;;;;;;;20.68;54.83;101160.87;1700249;82;20944;-72
2021/05/30 08:59:32;;;;;;;5.85;2.50;;;;;;;20.68;54.54;101152.16;1699740;83;20975;-73
2021/05/30 09:02:03;;;;;;;2.50;2.25;;;;;;;20.72;54.46;101155.63;1700210;84;21148;-79
2021/05/30 09:04:45;;;;;;;4.87;2.65;;;;;;;20.80;54.80;101159.66;1700419;84;21063;-81
2021/05/30 09:07:12;;;;;;;3.67;2.37;;;;;;;20.89;54.82;101162.67;1696436;84;21067;-78
2021/05/30 09:09:48;;;;;;;2.72;2.52;;;;;;;21.03;54.78;101157.30;1696460;84;21015;-76
2021/05/30 09:12:36;;;;;;;4.00;2.47;;;;;;;21.14;54.70;101151.79;1697124;84;21047;-80
2021/05/30 09:15:04;;;;;;;3.65;2.77;;;;;;;21.33;54.82;101148.08;1696111;84;21708;-76
2021/05/30 09:17:29;;;;;;;3.62;2.30;;;;;;;21.44;54.93;101144.64;1696753;84;21108;-87
2021/05/30 09:19:59;;;;;;;2.62;2.40;;;;;;;21.65;54.96;101140.27;1696270;84;37695;-73
2021/05/30 09:22:39;;;;;;;2.90;2.65;;;;;;;21.85;55.04;101133.72;1696531;84;20936;-75
2021/05/30 09:25:21;;;;;;;2.80;2.42;;;;;;;21.98;55.39;101136.75;1696695;84;21067;-73
2021/05/30 09:28:00;;;;;;;3.62;2.12;;;;;;;21.97;55.29;101129.80;1696369;84;21099;-72
2021/05/30 09:30:39;;;;;;;3.60;2.80;;;;;;;21.97;55.89;101128.48;1696504;84;21047;-75
2021/05/30 09:33:18;;;;;;;2.77;2.25;;;;;;;22.06;55.65;101130.62;1696078;84;21039;-74
2021/05/30 09:35:50;;;;;;;2.42;2.10;;;;;;;22.09;53.07;101131.13;1696450;84;21018;-77
2021/05/30 09:38:32;;;;;;;2.50;2.00;;;;;;;22.00;50.75;101126.00;1696398;84;21143;-74
2021/05/30 09:41:12;;;;;;;2.35;2.02;;;;;;;21.97;51.58;101128.48;1694800;84;21131;-73
2021/05/30 09:43:53;;;;;;;2.10;1.90;;;;;;;22.10;52.80;101128.00;1696574;84;21138;-77
2021/05/30 09:46:22;;;;;;;3.90;2.20;;;;;;;22.14;51.74;101130.66;1696612;84;20908;-73
2021/05/30 09:48:55;;;;;;;2.37;1.85;;;;;;;21.99;52.27;101134.42;1696157;84;21015;-72
2021/05/30 09:51:40;;;;;;;4.25;3.10;;;;;;;21.86;53.67;101128.75;1696459;84;21192;-75
2021/05/30 09:54:16;;;;;;;4.05;2.52;;;;;;;21.76;55.47;101136.52;1696784;84;20984;-73
2021/05/30 09:56:51;;;;;;;3.08;2.50;;;;;;;21.60;58.41;101138.09;1696474;84;21533;-76
2021/05/30 09:59:20;;;;;;;3.80;2.20;;;;;;;21.37;58.69;101138.86;1696457;84;21039;-75
2021/05/30 10:02:00;;;;;;;2.62;1.85;;;;;;;21.32;58.09;101141.13;1696617;84;21015;-83
2021/05/30 10:04:32;;;;;;;4.85;1.80;;;;;;;21.30;53.58;101135.20;1696137;84;21139;-77
2021/05/30 10:07:04;;;;;;;2.70;2.47;;;;;;;21.36;55.55;101135.39;1696411;84;21118;-85
2021/05/30 10:09:31;;;;;;;10.03;2.45;;;;;;;21.41;56.19;101147.61;1696231;84;21700;-83
2021/05/30 10:12:00;;;;;;;2.85;2.55;;;;;;;21.45;56.16;101134.43;1696443;84;22410;-79
2021/05/30 10:14:28;;;;;;;2.08;1.72;;;;;;;21.42;54.91;101129.95;1696603;84;21092;-83
2021/05/30 10:16:56;;;;;;;2.22;2.02;;;;;;;21.30;52.85;101142.63;1696541;84;21087;-77
2021/05/30 10:19:29;;;;;;;2.65;2.35;;;;;;;21.21;54.88;101148.03;1696619;84;21067;-80
2021/05/30 10:21:59;;;;;;;2.70;2.30;;;;;;;21.18;57.68;101143.90;1696290;84;21828;-77
2021/05/30 10:24:26;;;;;;;6.65;2.70;;;;;;;21.21;58.97;101141.43;1696424;84;21027;-82
2021/05/30 10:27:24;;;;;;;2.90;2.52;;;;;;;21.29;60.25;101144.92;1663870;84;21625;-71
2021/05/30 10:30:13;;;;;;;2.67;2.33;;;;;;;21.35;57.90;101143.45;1661749;84;21140;-77
2021/05/30 10:32:48;;;;;;;1.87;1.77;;;;;;;21.34;58.09;101141.83;1696139;84;21704;-74
2021/05/30 10:35:26;;;;;;;3.27;1.90;;;;;;;21.41;54.92;101148.13;1696463;84;21080;-80
2021/05/30 10:37:54;;;;;;;2.22;1.70;;;;;;;21.41;53.61;101150.77;1696402;84;21847;-81
2021/05/30 10:40:27;;;;;;;3.05;2.40;;;;;;;21.30;52.26;101155.83;1696730;84;21085;-75
2021/05/30 10:43:13;;;;;;;2.70;1.93;;;;;;;20.99;52.78;101140.97;1697009;84;21041;-83
2021/05/30 10:45:53;;;;;;;2.83;2.05;;;;;;;20.99;52.78;101140.97;1696245;84;21566;-82
2021/05/30 10:48:21;;;;;;;5.03;2.40;;;;;;;20.88;53.86;101143.03;1696662;84;21744;-81
2021/05/30 10:53:42;;;;;;;2.45;2.25;;;;;;;20.66;55.91;101122.45;1696273;84;21071;-80
2021/05/30 10:56:29;;;;;;;2.65;2.45;;;;;;;20.57;56.80;101120.26;1696798;84;21120;-74
2021/05/30 10:59:15;;;;;;;7.37;2.40;;;;;;;20.56;57.91;101118.59;1697930;84;20995;-79
2021/05/30 11:01:50;;;;;;;4.22;2.47;;;;;;;20.54;56.50;101125.36;1698429;84;21124;-77
2021/05/30 11:04:31;;;;;;;2.95;2.67;;;;;;;20.52;56.71;101118.07;1699023;84;20964;-78
2021/05/30 11:07:15;;;;;;;;;;;;;;;20.60;58.36;101118.63;1701535;84;20984;-76
2021/05/30 11:09:58;;;;;;;3.77;2.65;;;;;;;20.71;59.03;101121.52;1696465;84;20207;-76
2021/05/30 11:12:48;;;;;;;;;;;;;;;20.80;58.03;101117.94;1699636;84;20975;-78
2021/05/30 11:15:20;;;;;;;5.03;2.98;;;;;;;20.94;57.33;101117.34;1696550;84;21565;-78
2021/05/30 11:17:54;;;;;;;6.95;3.08;;;;;;;21.10;57.02;101123.56;1696570;84;21605;-80
2021/05/30 11:20:38;;;;;;;3.40;2.55;;;;;;;21.30;56.47;101122.83;1696750;84;21130;-73
2021/05/30 11:23:10;;;;;;;3.45;2.67;;;;;;;21.56;56.17;101128.87;1696712;84;21067;-77
2021/05/30 11:25:48;;;;;;;2.70;2.30;;;;;;;21.82;56.01;101137.19;1696742;84;21119;-77
2021/05/30 11:28:23;;;;;;;3.70;2.10;;;;;;;21.90;54.19;101142.50;1696912;84;21060;-72
2021/05/30 11:31:08;;;;;;;5.08;2.50;;;;;;;21.99;54.05;101139.70;1697278;84;21055;-72
2021/05/30 11:33:40;;;;;;;5.50;2.33;;;;;;;21.97;53.43;101140.86;1696982;84;20967;-76
2021/05/30 11:36:26;;;;;;;2.10;2.00;;;;;;;21.91;53.70;101150.77;1696674;84;21004;-76
2021/05/30 11:38:57;;;;;;;2.20;2.10;;;;;;;21.92;53.63;101149.27;1696098;84;20980;-78